createdAt,value
2022-08-18T00:02:04.377Z,73.71
2022-08-18T00:04:48.496Z,73.76
2022-08-18T00:07:23.336Z,73.80
2022-08-18T00:09:52.445Z,73.79
2022-08-18T00:12:32.771Z,73.85
2022-08-18T00:15:04.618Z,74.04
2022-08-18T00:17:34.664Z,74.04
2022-08-18T00:20:09.565Z,74.12
2022-08-18T00:22:40.126Z,74.20
2022-08-18T00:25:11.043Z,74.26
2022-08-18T00:27:41.484Z,74.22
2022-08-18T00:30:12.887Z,74.28
2022-08-18T00:32:44.417Z,74.31
2022-08-18T00:35:26.725Z,74.42
2022-08-18T00:38:00.435Z,74.47
2022-08-18T00:40:38.270Z,74.49
2022-08-18T00:43:12.720Z,74.58
2022-08-18T00:45:43.299Z,74.63
2022-08-18T00:48:13.287Z,74.81
2022-08-18T00:50:50.110Z,74.98
2022-08-18T00:53:44.218Z,74.95
2022-08-18T00:56:19.529Z,74.78
2022-08-18T00:58:56.193Z,75.01
2022-08-18T01:01:29.892Z,75.22
2022-08-18T01:04:25.304Z,75.37
2022-08-18T01:07:10.052Z,75.55
2022-08-18T01:09:38.697Z,75.60
2022-08-18T01:12:44.224Z,76.18
2022-08-18T01:14:57.500Z,76.08
2022-08-18T01:17:45.599Z,76.35
2022-08-18T01:20:37.351Z,76.62
2022-08-18T01:23:15.183Z,76.57
2022-08-18T01:26:00.015Z,76.55
2022-08-18T01:28:32.261Z,76.42
2022-08-18T01:31:02.554Z,76.54
2022-08-18T01:33:34.073Z,76.73
2022-08-18T01:36:16.883Z,76.57
2022-08-18T01:38:51.928Z,76.66
2022-08-18T01:41:29.681Z,76.73
2022-08-18T01:44:00.224Z,76.94
2022-08-18T01:46:31.805Z,77.01
2022-08-18T01:49:01.221Z,77.09
2022-08-18T01:51:39.803Z,77.22
2022-08-18T01:54:12.448Z,77.15
2022-08-18T01:56:42.543Z,77.27
2022-08-18T01:59:14.620Z,77.29
2022-08-18T02:01:52.777Z,77.37
2022-08-18T02:04:36.429Z,77.36
2022-08-18T02:07:09.724Z,77.39
2022-08-18T02:09:40.353Z,77.50
2022-08-18T02:12:09.855Z,77.58
2022-08-18T02:14:39.036Z,77.58
2022-08-18T02:17:10.016Z,77.71
2022-08-18T02:19:42.910Z,77.82
2022-08-18T02:22:14.121Z,77.82
2022-08-18T02:24:43.173Z,78.16
2022-08-18T02:27:13.373Z,78.24
2022-08-18T02:29:41.614Z,78.51
2022-08-18T02:32:09.690Z,78.51
2022-08-18T02:34:37.814Z,78.37
2022-08-18T02:37:05.944Z,78.51
2022-08-18T02:39:35.946Z,78.53
2022-08-18T02:42:07.559Z,78.38
2022-08-18T02:44:36.219Z,78.45
2022-08-18T02:47:04.792Z,78.50
2022-08-18T02:49:33.416Z,78.50
2022-08-18T02:52:01.420Z,78.73
2022-08-18T02:54:29.485Z,78.82
2022-08-18T02:56:57.695Z,78.85
2022-08-18T02:59:27.949Z,78.72
2022-08-18T03:01:59.916Z,78.93
2022-08-18T03:04:30.882Z,78.78
2022-08-18T03:07:06.027Z,78.80
2022-08-18T03:09:35.528Z,78.86
2022-08-18T03:12:07.302Z,78.83
2022-08-18T03:14:36.703Z,78.78
2022-08-18T03:17:08.440Z,78.99
2022-08-18T03:19:37.617Z,78.79
2022-08-18T03:22:27.240Z,78.83
2022-08-18T03:24:57.210Z,78.76
2022-08-18T03:27:26.258Z,78.80
2022-08-18T03:29:54.592Z,78.94
2022-08-18T03:32:22.771Z,78.86
2022-08-18T03:34:50.911Z,79.05
2022-08-18T03:37:19.005Z,78.86
2022-08-18T03:39:47.239Z,78.73
2022-08-18T03:42:15.367Z,79.11
2022-08-18T03:44:43.497Z,79.02
2022-08-18T03:47:11.953Z,79.02
2022-08-18T03:49:40.080Z,79.08
2022-08-18T03:52:10.284Z,79.09
2022-08-18T03:54:39.267Z,79.24
2022-08-18T03:57:12.687Z,79.21
2022-08-18T03:59:44.213Z,79.34
2022-08-18T04:02:12.782Z,79.39
2022-08-18T04:04:43.125Z,79.33
2022-08-18T04:07:17.442Z,79.50
2022-08-18T04:09:46.280Z,79.33
2022-08-18T04:12:17.396Z,79.45
2022-08-18T04:14:48.969Z,79.76
2022-08-18T04:17:23.827Z,79.67
2022-08-18T04:19:53.853Z,79.85
2022-08-18T04:22:23.290Z,80.03
2022-08-18T04:24:51.684Z,79.82
2022-08-18T04:27:22.322Z,79.90
2022-08-18T04:29:50.707Z,79.89
2022-08-18T04:32:19.705Z,79.94
2022-08-18T04:34:47.938Z,79.97
2022-08-18T04:37:17.383Z,79.93
2022-08-18T04:39:46.161Z,79.97
2022-08-18T04:42:15.305Z,79.92
2022-08-18T04:44:43.746Z,79.97
2022-08-18T04:47:13.348Z,79.95
2022-08-18T04:49:41.440Z,79.97
2022-08-18T04:52:40.111Z,79.99
2022-08-18T04:55:10.865Z,79.96
2022-08-18T04:57:39.829Z,80.20
2022-08-18T05:00:08.980Z,80.19
2022-08-18T05:02:38.320Z,80.17
2022-08-18T05:05:07.231Z,80.23
2022-08-18T05:07:35.339Z,80.24
2022-08-18T05:10:04.207Z,80.35
2022-08-18T05:12:32.378Z,80.39
2022-08-18T05:15:00.530Z,80.43
2022-08-18T05:17:30.566Z,80.24
2022-08-18T05:20:00.971Z,80.04
2022-08-18T05:22:31.620Z,80.06
2022-08-18T05:25:00.755Z,80.00
2022-08-18T05:27:37.273Z,79.71
2022-08-18T05:30:07.562Z,79.67
2022-08-18T05:32:49.067Z,79.19
2022-08-18T05:35:26.512Z,78.98
2022-08-18T05:38:28.853Z,78.71
2022-08-18T05:41:23.117Z,78.59
2022-08-18T05:43:52.590Z,78.17
2022-08-18T05:46:35.042Z,77.78
2022-08-18T05:49:03.885Z,77.42
2022-08-18T05:51:40.081Z,77.04
2022-08-18T05:54:27.970Z,76.49
2022-08-18T05:57:01.232Z,76.14
2022-08-18T05:59:35.766Z,76.17
2022-08-18T06:02:16.219Z,75.99
2022-08-18T06:05:05.951Z,75.69
2022-08-18T06:07:41.536Z,74.71
2022-08-18T06:10:11.568Z,74.42
2022-08-18T06:12:52.190Z,73.94
2022-08-18T06:15:47.915Z,73.08
2022-08-18T06:18:48.605Z,72.92
2022-08-18T06:21:28.591Z,72.41
2022-08-18T06:24:14.969Z,72.61
2022-08-18T06:26:56.318Z,72.33
2022-08-18T06:29:53.630Z,71.21
2022-08-18T06:32:37.706Z,70.81
2022-08-18T06:35:18.641Z,70.78
2022-08-18T06:38:34.883Z,70.30
2022-08-18T06:41:40.931Z,69.52
2022-08-18T06:44:22.169Z,69.73
2022-08-18T06:47:08.900Z,69.61
2022-08-18T06:49:54.886Z,68.86
2022-08-18T06:52:38.845Z,68.87
2022-08-18T06:55:18.927Z,68.82
2022-08-18T06:57:57.853Z,67.65
2022-08-18T07:00:32.695Z,67.54
2022-08-18T07:03:07.941Z,66.94
2022-08-18T07:05:37.141Z,66.62
2022-08-18T07:08:21.844Z,66.61
2022-08-18T07:10:52.364Z,65.76
2022-08-18T07:13:27.103Z,64.26
2022-08-18T07:16:15.928Z,64.95
2022-08-18T07:18:47.088Z,65.41
2022-08-18T07:21:29.840Z,63.72
2022-08-18T07:24:24.875Z,64.34
2022-08-18T07:27:01.989Z,63.96
2022-08-18T07:29:33.881Z,62.85
2022-08-18T07:32:07.238Z,62.94
2022-08-18T07:34:43.050Z,62.52
2022-08-18T07:37:27.955Z,62.38
2022-08-18T07:40:05.698Z,61.89
2022-08-18T07:43:12.433Z,61.42
2022-08-18T07:45:44.860Z,60.99
2022-08-18T07:48:40.624Z,61.29
2022-08-18T07:51:24.723Z,61.10
2022-08-18T07:54:44.930Z,61.51
2022-08-18T07:57:42.700Z,60.93
2022-08-18T08:00:47.743Z,61.36
2022-08-18T08:03:43.290Z,60.92
2022-08-18T08:06:30.062Z,60.53
2022-08-18T08:09:20.509Z,60.23
2022-08-18T08:12:05.014Z,60.09
2022-08-18T08:14:43.956Z,60.52
2022-08-18T08:17:55.652Z,59.40
2022-08-18T08:20:28.852Z,59.58
2022-08-18T08:23:37.586Z,59.60
2022-08-18T08:26:30.246Z,58.83
2022-08-18T08:29:18.928Z,58.83
2022-08-18T08:32:05.188Z,59.03
2022-08-18T08:34:47.453Z,58.79
2022-08-18T08:37:24.502Z,58.26
2022-08-18T08:40:00.769Z,57.80
2022-08-18T08:42:34.502Z,57.54
2022-08-18T08:45:32.879Z,56.79
2022-08-18T08:48:09.559Z,57.58
2022-08-18T08:50:50.164Z,57.36
2022-08-18T08:53:32.631Z,57.05
2022-08-18T08:56:09.207Z,57.00
2022-08-18T08:58:46.693Z,57.30
2022-08-18T09:01:30.905Z,57.62
2022-08-18T09:04:20.169Z,56.87
2022-08-18T09:06:55.058Z,56.92
2022-08-18T09:09:28.750Z,56.30
2022-08-18T09:12:13.543Z,56.17
2022-08-18T09:15:10.699Z,57.04
2022-08-18T09:17:54.649Z,55.18
2022-08-18T09:20:49.357Z,55.31
2022-08-18T09:23:22.622Z,55.33
2022-08-18T09:26:41.608Z,55.42
2022-08-18T09:29:37.544Z,55.71
2022-08-18T09:35:10.717Z,54.43
2022-08-18T09:38:38.797Z,54.26
2022-08-18T09:41:34.249Z,54.31
2022-08-18T09:47:01.311Z,53.90
2022-08-18T09:49:30.695Z,53.79
2022-08-18T09:52:24.397Z,54.18
2022-08-18T09:54:53.489Z,53.94
2022-08-18T09:57:27.440Z,53.40
2022-08-18T09:59:57.290Z,53.56
2022-08-18T10:02:37.513Z,53.92
2022-08-18T10:05:17.701Z,52.91
2022-08-18T10:07:45.743Z,53.66
2022-08-18T10:11:01.326Z,52.83
2022-08-18T10:13:29.705Z,52.78
2022-08-18T10:16:11.021Z,53.09
2022-08-18T10:19:01.018Z,52.00
2022-08-18T10:21:53.729Z,52.55
2022-08-18T10:24:36.471Z,51.90
2022-08-18T10:27:08.424Z,52.03
2022-08-18T10:29:50.493Z,52.43
2022-08-18T10:32:24.402Z,52.61
2022-08-18T10:34:55.517Z,52.58
2022-08-18T10:37:46.366Z,52.68
2022-08-18T10:40:22.593Z,51.95
2022-08-18T10:43:46.262Z,51.51
2022-08-18T10:46:26.598Z,51.25
2022-08-18T10:49:12.954Z,51.23
2022-08-18T10:52:00.509Z,51.43
2022-08-18T10:54:39.173Z,51.48
2022-08-18T10:57:36.190Z,51.81
2022-08-18T11:00:13.785Z,51.91
2022-08-18T11:03:50.190Z,52.13
2022-08-18T11:06:18.157Z,51.41
2022-08-18T11:11:52.478Z,51.68
2022-08-18T11:14:52.330Z,51.74
2022-08-18T11:17:40.473Z,51.39
2022-08-18T11:20:14.876Z,50.74
2022-08-18T11:22:56.789Z,50.23
2022-08-18T11:25:32.083Z,50.75
2022-08-18T11:28:02.396Z,51.22
2022-08-18T11:30:37.551Z,50.53
2022-08-18T11:33:14.120Z,50.32
2022-08-18T11:35:58.070Z,50.58
2022-08-18T11:38:29.583Z,50.59
2022-08-18T11:41:47.824Z,50.25
2022-08-18T11:44:25.137Z,50.31
2022-08-18T11:47:17.861Z,50.33
2022-08-18T11:50:13.687Z,50.44
2022-08-18T11:53:15.147Z,50.38
2022-08-18T11:56:04.376Z,50.06
2022-08-18T11:58:46.152Z,50.31
2022-08-18T12:01:40.882Z,50.15
2022-08-18T12:04:16.650Z,49.94
2022-08-18T12:06:45.787Z,50.40
2022-08-18T12:09:37.130Z,50.20
2022-08-18T12:12:07.451Z,50.26
2022-08-18T12:14:52.110Z,50.48
2022-08-18T12:17:20.845Z,50.10
2022-08-18T12:19:49.486Z,50.30
2022-08-18T12:22:28.387Z,50.12
2022-08-18T12:24:56.652Z,50.39
2022-08-18T12:27:26.416Z,50.37
2022-08-18T12:30:05.055Z,49.89
2022-08-18T12:32:47.123Z,49.80
2022-08-18T12:40:55.784Z,49.56
2022-08-18T12:43:23.887Z,49.84
2022-08-18T12:46:00.255Z,50.12
2022-08-18T12:48:31.712Z,50.30
2022-08-18T12:51:05.676Z,50.25
2022-08-18T12:56:30.416Z,49.89
2022-08-18T12:59:04.343Z,49.98
2022-08-18T13:01:34.271Z,50.23
2022-08-18T13:07:00.590Z,50.36
2022-08-18T13:09:34.126Z,50.24
2022-08-18T13:12:14.960Z,50.33
2022-08-18T13:14:45.878Z,50.75
2022-08-18T13:17:30.101Z,50.67
2022-08-18T13:20:09.683Z,50.76
2022-08-18T13:22:41.946Z,50.54
2022-08-18T13:25:13.214Z,50.31
2022-08-18T13:28:01.998Z,50.64
2022-08-18T13:30:32.519Z,50.66
2022-08-18T13:33:05.411Z,50.92
2022-08-18T13:35:52.265Z,50.92
2022-08-18T13:38:28.075Z,50.51
2022-08-18T13:40:59.411Z,50.57
2022-08-18T13:43:32.422Z,50.48
2022-08-18T13:46:04.154Z,50.59
2022-08-18T13:48:33.346Z,50.56
2022-08-18T13:51:04.266Z,50.52
2022-08-18T13:53:34.274Z,50.69
2022-08-18T13:56:02.827Z,50.87
2022-08-18T13:58:32.291Z,50.84
2022-08-18T14:01:39.591Z,50.45
2022-08-18T14:03:53.617Z,50.24
2022-08-18T14:06:23.708Z,50.38
2022-08-18T14:08:53.529Z,49.88
2022-08-18T14:11:27.707Z,50.31
2022-08-18T14:14:02.472Z,49.76
2022-08-18T14:16:32.012Z,49.65
2022-08-18T14:19:19.567Z,49.83
2022-08-18T14:22:11.931Z,49.86
2022-08-18T14:25:00.627Z,50.26
2022-08-18T14:27:38.121Z,50.51
2022-08-18T14:30:10.847Z,50.48
2022-08-18T14:32:48.874Z,50.44
2022-08-18T14:35:32.091Z,50.34
2022-08-18T14:38:04.221Z,49.94
2022-08-18T14:40:34.771Z,49.85
2022-08-18T14:43:02.938Z,49.97
2022-08-18T14:45:36.252Z,49.45
2022-08-18T14:48:07.660Z,49.48
2022-08-18T14:50:44.832Z,49.43
2022-08-18T14:53:20.360Z,49.91
2022-08-18T14:55:53.435Z,49.93
2022-08-18T14:58:28.903Z,49.76
2022-08-18T15:01:08.495Z,49.64
2022-08-18T15:03:40.065Z,49.67
2022-08-18T15:06:08.737Z,49.70
2022-08-18T15:08:45.476Z,49.91
2022-08-18T15:11:16.649Z,49.78
2022-08-18T15:13:46.510Z,49.79
2022-08-18T15:16:16.802Z,49.84
2022-08-18T15:18:46.719Z,49.91
2022-08-18T15:21:38.807Z,49.85
2022-08-18T15:24:26.811Z,49.74
2022-08-18T15:26:58.228Z,49.85
2022-08-18T15:29:34.110Z,49.81
2022-08-18T15:32:05.306Z,49.63
2022-08-18T15:34:46.492Z,49.78
2022-08-18T15:37:19.418Z,49.92
2022-08-18T15:40:01.321Z,50.00
2022-08-18T15:42:30.956Z,50.00
2022-08-18T15:45:11.607Z,50.08
2022-08-18T15:47:43.720Z,50.12
2022-08-18T15:50:21.899Z,50.09
2022-08-18T15:52:58.255Z,50.04
2022-08-18T15:55:29.322Z,50.30
2022-08-18T15:58:10.725Z,50.44
2022-08-18T16:00:45.967Z,50.46
2022-08-18T16:03:16.274Z,50.62
2022-08-18T16:05:53.517Z,50.69
2022-08-18T16:08:24.970Z,50.52
2022-08-18T16:10:54.043Z,50.74
2022-08-18T16:13:26.418Z,50.76
2022-08-18T16:15:54.554Z,50.90
2022-08-18T16:18:22.737Z,51.04
2022-08-18T16:20:52.729Z,51.02
2022-08-18T16:23:25.068Z,51.17
2022-08-18T16:26:02.538Z,51.19
2022-08-18T16:28:34.999Z,51.45
2022-08-18T16:31:03.439Z,51.70
2022-08-18T16:33:31.815Z,51.61
2022-08-18T16:36:07.588Z,51.83
2022-08-18T16:38:38.399Z,51.95
2022-08-18T16:41:12.307Z,51.99
2022-08-18T16:43:44.383Z,52.21
2022-08-18T16:46:17.808Z,52.22
2022-08-18T16:48:46.139Z,52.18
2022-08-18T16:51:19.877Z,52.24
2022-08-18T16:53:52.165Z,52.36
2022-08-18T16:56:26.460Z,52.45
2022-08-18T16:59:13.527Z,52.59
2022-08-18T17:02:01.178Z,52.65
2022-08-18T17:04:33.780Z,52.87
2022-08-18T17:07:05.021Z,52.96
2022-08-18T17:09:34.585Z,53.12
2022-08-18T17:12:03.000Z,53.15
2022-08-18T17:14:31.712Z,53.36
2022-08-18T17:17:00.791Z,53.56
2022-08-18T17:19:33.695Z,53.69
2022-08-18T17:22:03.611Z,53.75
2022-08-18T17:24:32.716Z,53.96
2022-08-18T17:27:26.323Z,54.08
2022-08-18T17:30:18.457Z,54.16
2022-08-18T17:32:53.553Z,54.35
2022-08-18T17:35:29.277Z,54.57
2022-08-18T17:38:00.288Z,54.65
2022-08-18T17:40:50.177Z,54.90
2022-08-18T17:43:21.225Z,55.06
2022-08-18T17:45:56.341Z,55.13
2022-08-18T17:48:30.817Z,55.30
2022-08-18T17:51:27.474Z,55.63
2022-08-18T17:54:01.059Z,55.65
2022-08-18T17:56:36.381Z,55.68
2022-08-18T17:59:45.443Z,55.76
2022-08-18T18:02:16.632Z,55.95
2022-08-18T18:05:06.187Z,56.04
2022-08-18T18:07:45.546Z,56.34
2022-08-18T18:10:25.435Z,56.48
2022-08-18T18:13:16.344Z,56.55
2022-08-18T18:15:49.311Z,56.69
2022-08-18T18:18:25.511Z,57.06
2022-08-18T18:21:08.660Z,57.04
2022-08-18T18:23:41.305Z,57.06
2022-08-18T18:26:29.786Z,57.28
2022-08-18T18:29:32.318Z,57.38
2022-08-18T18:32:07.476Z,57.74
2022-08-18T18:34:43.008Z,57.78
2022-08-18T18:37:25.585Z,57.73
2022-08-18T18:40:02.357Z,57.90
2022-08-18T18:42:35.501Z,57.94
2022-08-18T18:45:09.575Z,58.11
2022-08-18T18:48:45.059Z,58.17
2022-08-18T18:51:19.344Z,58.54
2022-08-18T18:54:41.018Z,58.60
2022-08-18T18:57:21.874Z,58.67
2022-08-18T19:00:19.695Z,58.62
2022-08-18T19:03:16.096Z,58.82
2022-08-18T19:06:02.245Z,58.86
2022-08-18T19:08:59.841Z,58.92
2022-08-18T19:11:39.891Z,58.97
2022-08-18T19:14:19.734Z,58.83
2022-08-18T19:17:08.343Z,58.94
2022-08-18T19:19:44.612Z,58.97
2022-08-18T19:22:31.394Z,59.03
2022-08-18T19:25:14.724Z,58.99
2022-08-18T19:28:02.723Z,59.11
2022-08-18T19:30:34.103Z,59.13
2022-08-18T19:33:04.694Z,59.21
2022-08-18T19:35:44.757Z,59.24
2022-08-18T19:38:29.458Z,59.34
2022-08-18T19:41:05.537Z,59.42
2022-08-18T19:43:53.659Z,59.37
2022-08-18T19:46:38.193Z,59.48
2022-08-18T19:49:26.715Z,59.61
2022-08-18T19:51:59.615Z,59.57
2022-08-18T19:54:45.342Z,59.74
2022-08-18T19:57:23.217Z,59.83
2022-08-18T20:00:15.868Z,59.97
2022-08-18T20:02:50.168Z,60.01
2022-08-18T20:05:30.261Z,60.10
2022-08-18T20:08:07.432Z,60.24
2022-08-18T20:10:49.383Z,60.17
2022-08-18T20:13:42.857Z,60.48
2022-08-18T20:16:43.492Z,60.59
2022-08-18T20:19:40.499Z,60.74
2022-08-18T20:22:39.840Z,60.77
2022-08-18T20:25:33.184Z,60.90
2022-08-18T20:28:02.328Z,61.17
2022-08-18T20:30:32.873Z,61.46
2022-08-18T20:33:20.766Z,61.75
2022-08-18T20:36:09.680Z,61.90
2022-08-18T20:39:25.044Z,61.94
2022-08-18T20:41:55.260Z,62.15
2022-08-18T20:44:41.382Z,62.35
2022-08-18T20:47:28.170Z,62.47
2022-08-18T20:50:08.285Z,62.68
2022-08-18T20:52:45.215Z,62.77
2022-08-18T20:55:19.310Z,63.04
2022-08-18T20:57:48.415Z,63.01
2022-08-18T21:00:22.653Z,63.13
2022-08-18T21:02:59.130Z,63.32
2022-08-18T21:05:38.974Z,63.33
2022-08-18T21:08:19.911Z,63.61
2022-08-18T21:10:58.094Z,63.50
2022-08-18T21:13:46.388Z,63.77
2022-08-18T21:16:37.986Z,64.18
2022-08-18T21:19:20.811Z,64.43
2022-08-18T21:21:53.669Z,64.34
2022-08-18T21:24:27.907Z,64.44
2022-08-18T21:27:05.146Z,64.72
2022-08-18T21:29:47.342Z,65.01
2022-08-18T21:32:21.883Z,65.01
2022-08-18T21:34:51.249Z,65.12
2022-08-18T21:37:20.127Z,65.14
2022-08-18T21:39:52.259Z,65.62
2022-08-18T21:42:29.892Z,65.44
2022-08-18T21:45:00.584Z,65.36
2022-08-18T21:47:34.124Z,65.71
2022-08-18T21:50:11.376Z,65.69
2022-08-18T21:52:53.994Z,65.75
2022-08-18T21:55:37.644Z,66.07
2022-08-18T21:58:17.769Z,65.85
2022-08-18T22:01:06.214Z,66.11
2022-08-18T22:03:37.022Z,65.70
2022-08-18T22:06:20.758Z,66.08
2022-08-18T22:08:55.010Z,65.97
2022-08-18T22:12:00.987Z,66.34
2022-08-18T22:14:54.573Z,66.24
2022-08-18T22:17:43.384Z,66.36
2022-08-18T22:20:34.988Z,66.29
2022-08-18T22:23:29.014Z,66.00
2022-08-18T22:26:21.043Z,66.62
2022-08-18T22:28:52.158Z,66.55
2022-08-18T22:31:21.588Z,66.73
2022-08-18T22:33:54.302Z,66.93
2022-08-18T22:36:32.398Z,67.22
2022-08-18T22:39:01.298Z,67.24
2022-08-18T22:41:30.029Z,67.23
2022-08-18T22:43:58.529Z,67.41
2022-08-18T22:46:28.876Z,67.18
2022-08-18T22:48:57.055Z,67.34
2022-08-18T22:51:28.339Z,67.59
2022-08-18T22:53:57.665Z,67.62
2022-08-18T22:56:33.890Z,67.68
2022-08-18T22:59:13.951Z,67.73
2022-08-18T23:01:46.914Z,67.73
2022-08-18T23:04:17.509Z,67.55
2022-08-18T23:06:51.894Z,67.85
2022-08-18T23:09:24.529Z,67.75
2022-08-18T23:11:54.949Z,67.84
2022-08-18T23:14:23.780Z,67.72
2022-08-18T23:16:52.767Z,67.84
2022-08-18T23:19:21.584Z,67.88
2022-08-18T23:21:51.814Z,68.09
2022-08-18T23:24:20.773Z,68.23
2022-08-18T23:26:50.004Z,68.09
2022-08-18T23:29:20.218Z,68.18
2022-08-18T23:31:49.788Z,68.15
2022-08-18T23:34:21.597Z,68.05
2022-08-18T23:37:01.062Z,68.17
2022-08-18T23:39:32.008Z,68.14
2022-08-18T23:42:01.280Z,68.16
2022-08-18T23:44:30.393Z,68.39
2022-08-18T23:47:00.094Z,68.50
2022-08-18T23:49:30.524Z,68.53
2022-08-18T23:52:00.398Z,68.72
2022-08-18T23:54:33.135Z,68.57
2022-08-18T23:57:01.525Z,68.73
2022-08-18T23:59:29.941Z,68.72
